createdAt,value
2018-09-22T00:00:26.160Z,99.90
2018-09-22T00:02:54.538Z,99.90
2018-09-22T00:05:22.850Z,99.90
2018-09-22T00:07:51.183Z,99.90
2018-09-22T00:10:19.489Z,99.90
2018-09-22T00:12:47.839Z,99.90
2018-09-22T00:15:16.360Z,99.90
2018-09-22T00:17:44.647Z,99.90
2018-09-22T00:20:12.919Z,99.90
2018-09-22T00:22:41.188Z,99.90
2018-09-22T00:25:09.516Z,99.90
2018-09-22T00:27:37.784Z,99.90
2018-09-22T00:30:06.367Z,99.90
2018-09-22T00:32:35.039Z,99.90
2018-09-22T00:35:03.372Z,99.90
2018-09-22T00:37:31.697Z,99.90
2018-09-22T00:39:59.994Z,99.90
2018-09-22T00:42:28.244Z,99.90
2018-09-22T00:44:56.607Z,99.90
2018-09-22T00:47:24.906Z,99.90
2018-09-22T00:49:53.895Z,99.90
2018-09-22T00:52:22.283Z,99.90
2018-09-22T00:54:50.596Z,99.90
2018-09-22T00:57:18.911Z,99.90
2018-09-22T00:59:47.181Z,99.90
2018-09-22T01:02:15.435Z,99.90
2018-09-22T01:04:43.795Z,99.90
2018-09-22T01:07:12.079Z,99.90
2018-09-22T01:09:40.372Z,99.90
2018-09-22T01:12:08.634Z,99.90
2018-09-22T01:14:36.890Z,99.90
2018-09-22T01:17:05.192Z,99.90
2018-09-22T01:19:33.491Z,99.90
2018-09-22T01:22:01.795Z,99.90
2018-09-22T01:24:30.173Z,99.90
2018-09-22T01:26:58.925Z,99.90
2018-09-22T01:29:27.172Z,99.90
2018-09-22T01:31:55.488Z,99.90
2018-09-22T01:34:23.767Z,99.90
2018-09-22T01:36:52.040Z,99.90
2018-09-22T01:39:20.335Z,99.90
2018-09-22T01:41:48.631Z,99.90
2018-09-22T01:44:16.982Z,99.90
2018-09-22T01:46:45.302Z,99.90
2018-09-22T01:49:13.558Z,99.90
2018-09-22T01:51:41.827Z,99.90
2018-09-22T01:54:10.121Z,99.90
2018-09-22T01:56:38.395Z,99.90
2018-09-22T01:59:06.762Z,99.90
2018-09-22T02:01:35.066Z,99.90
2018-09-22T02:04:03.987Z,99.90
2018-09-22T02:06:32.281Z,99.90
2018-09-22T02:09:00.728Z,99.90
2018-09-22T02:11:29.120Z,99.90
2018-09-22T02:13:57.392Z,99.90
2018-09-22T02:16:25.699Z,99.90
2018-09-22T02:18:53.952Z,99.90
2018-09-22T02:21:22.231Z,99.90
2018-09-22T02:23:50.522Z,99.90
2018-09-22T02:26:18.796Z,99.90
2018-09-22T02:28:47.174Z,99.90
2018-09-22T02:31:15.429Z,99.90
2018-09-22T02:33:43.740Z,99.90
2018-09-22T02:36:12.081Z,99.90
2018-09-22T02:38:40.358Z,99.90
2018-09-22T02:41:11.692Z,99.90
2018-09-22T02:43:39.988Z,99.90
2018-09-22T02:46:08.313Z,99.90
2018-09-22T02:48:36.939Z,99.90
2018-09-22T02:51:05.903Z,99.90
2018-09-22T02:53:34.184Z,99.90
2018-09-22T02:56:02.509Z,99.90
2018-09-22T02:58:30.829Z,99.90
2018-09-22T03:00:59.085Z,99.90
2018-09-22T03:03:27.371Z,99.90
2018-09-22T03:05:55.667Z,99.90
2018-09-22T03:08:24.084Z,99.90
2018-09-22T03:10:52.357Z,99.90
2018-09-22T03:13:20.675Z,99.90
2018-09-22T03:15:48.955Z,99.90
2018-09-22T03:18:17.275Z,99.90
2018-09-22T03:20:45.591Z,99.90
2018-09-22T03:23:13.899Z,99.90
2018-09-22T03:25:42.178Z,99.90
2018-09-22T03:28:10.474Z,99.90
2018-09-22T03:30:38.795Z,99.90
2018-09-22T03:33:07.174Z,99.90
2018-09-22T03:35:35.443Z,99.90
2018-09-22T03:38:03.719Z,99.90
2018-09-22T03:40:32.007Z,99.90
2018-09-22T03:43:00.225Z,99.90
2018-09-22T03:45:28.528Z,99.90
2018-09-22T03:47:56.844Z,99.90
2018-09-22T03:50:25.144Z,99.90
2018-09-22T03:52:53.568Z,99.90
2018-09-22T03:55:28.575Z,99.90
2018-09-22T03:57:56.873Z,99.90
2018-09-22T04:00:25.151Z,99.90
2018-09-22T04:02:53.496Z,99.90
2018-09-22T04:05:21.757Z,99.90
2018-09-22T04:07:50.175Z,99.90
2018-09-22T04:10:18.444Z,99.90
2018-09-22T04:12:46.752Z,99.90
2018-09-22T04:15:15.064Z,99.90
2018-09-22T04:17:43.370Z,99.90
2018-09-22T04:20:11.664Z,99.90
2018-09-22T04:22:39.956Z,99.90
2018-09-22T04:25:08.374Z,99.90
2018-09-22T04:27:36.758Z,99.90
2018-09-22T04:30:05.088Z,99.90
2018-09-22T04:32:33.411Z,99.90
2018-09-22T04:35:01.728Z,99.90
2018-09-22T04:37:31.219Z,99.90
2018-09-22T04:39:59.495Z,99.90
2018-09-22T04:42:27.811Z,99.90
2018-09-22T04:44:56.154Z,99.90
2018-09-22T04:47:24.435Z,99.90
2018-09-22T04:49:53.281Z,99.90
2018-09-22T04:52:21.576Z,99.90
2018-09-22T04:54:49.891Z,99.90
2018-09-22T04:57:18.167Z,99.90
2018-09-22T04:59:46.476Z,99.90
2018-09-22T05:02:14.783Z,99.90
2018-09-22T05:04:43.120Z,99.90
2018-09-22T05:07:11.459Z,99.90
2018-09-22T05:09:39.729Z,99.90
2018-09-22T05:12:08.021Z,99.90
2018-09-22T05:14:36.345Z,99.90
2018-09-22T05:17:04.647Z,99.90
2018-09-22T05:19:32.979Z,99.90
2018-09-22T05:22:01.243Z,99.90
2018-09-22T05:24:29.531Z,99.90
2018-09-22T05:26:57.837Z,99.90
2018-09-22T05:29:26.111Z,99.90
2018-09-22T05:31:54.407Z,99.90
2018-09-22T05:34:22.667Z,99.90
2018-09-22T05:36:50.954Z,99.90
2018-09-22T05:39:19.232Z,99.90
2018-09-22T05:41:47.565Z,99.90
2018-09-22T05:44:15.815Z,99.90
2018-09-22T05:46:44.104Z,99.90
2018-09-22T05:49:12.507Z,99.90
2018-09-22T05:51:40.868Z,99.90
2018-09-22T05:54:09.155Z,99.90
2018-09-22T05:56:37.418Z,99.90
2018-09-22T05:59:05.835Z,99.90
2018-09-22T06:01:34.231Z,99.90
2018-09-22T06:04:02.698Z,99.90
2018-09-22T06:06:30.928Z,99.90
2018-09-22T06:08:59.244Z,99.90
2018-09-22T06:11:28.652Z,99.90
2018-09-22T06:13:56.961Z,99.90
2018-09-22T06:16:25.269Z,99.90
2018-09-22T06:18:53.586Z,99.90
2018-09-22T06:21:21.890Z,99.90
2018-09-22T06:23:50.196Z,99.90
2018-09-22T06:26:18.564Z,99.90
2018-09-22T06:28:46.970Z,99.90
2018-09-22T06:31:16.140Z,99.90
2018-09-22T06:33:44.504Z,99.90
2018-09-22T06:36:12.818Z,99.90
2018-09-22T06:38:41.119Z,99.90
2018-09-22T06:41:09.428Z,99.90
2018-09-22T06:43:37.840Z,99.90
2018-09-22T06:46:06.184Z,99.90
2018-09-22T06:48:34.423Z,99.90
2018-09-22T06:51:02.717Z,99.90
2018-09-22T06:53:31.077Z,99.90
2018-09-22T06:55:59.403Z,99.90
2018-09-22T06:58:27.702Z,99.90
2018-09-22T07:00:56.061Z,99.90
2018-09-22T07:03:24.905Z,99.90
2018-09-22T07:05:53.250Z,99.90
2018-09-22T07:08:21.614Z,99.90
2018-09-22T07:10:49.932Z,99.90
2018-09-22T07:13:18.327Z,99.90
2018-09-22T07:15:46.640Z,99.90
2018-09-22T07:18:14.934Z,99.90
2018-09-22T07:21:14.029Z,99.90
2018-09-22T07:23:42.367Z,99.90
2018-09-22T07:26:10.666Z,99.90
2018-09-22T07:28:38.970Z,99.90
2018-09-22T07:31:07.322Z,99.90
2018-09-22T07:33:35.652Z,99.90
2018-09-22T07:36:03.926Z,99.90
2018-09-22T07:38:32.232Z,99.90
2018-09-22T07:41:00.933Z,99.90
2018-09-22T07:43:29.285Z,99.90
2018-09-22T07:45:57.674Z,99.90
2018-09-22T07:48:25.974Z,99.90
2018-09-22T07:50:54.342Z,99.90
2018-09-22T07:53:22.732Z,99.90
2018-09-22T07:55:51.066Z,99.90
2018-09-22T07:58:19.455Z,99.90
2018-09-22T08:00:47.735Z,99.90
2018-09-22T08:03:16.031Z,99.90
2018-09-22T08:05:44.447Z,99.90
2018-09-22T08:08:12.781Z,99.90
2018-09-22T08:10:41.126Z,99.90
2018-09-22T08:13:09.492Z,99.90
2018-09-22T08:15:37.915Z,99.90
2018-09-22T08:18:06.230Z,99.90
2018-09-22T08:20:34.562Z,99.90
2018-09-22T08:23:02.936Z,99.90
2018-09-22T08:25:31.272Z,99.90
2018-09-22T08:27:59.933Z,99.90
2018-09-22T08:30:28.226Z,99.90
2018-09-22T08:32:56.535Z,99.90
2018-09-22T08:35:25.327Z,99.90
2018-09-22T08:37:53.714Z,99.90
2018-09-22T08:40:22.022Z,99.90
2018-09-22T08:42:50.357Z,99.90
2018-09-22T08:45:18.631Z,99.90
2018-09-22T08:47:46.938Z,99.90
2018-09-22T08:50:15.278Z,99.90
2018-09-22T08:52:43.591Z,99.90
2018-09-22T08:55:11.904Z,99.90
2018-09-22T08:57:40.280Z,99.90
2018-09-22T09:00:08.556Z,99.90
2018-09-22T09:02:36.842Z,99.90
2018-09-22T09:05:05.142Z,99.90
2018-09-22T09:07:33.449Z,99.90
2018-09-22T09:10:01.752Z,99.90
2018-09-22T09:12:30.069Z,99.90
2018-09-22T09:14:58.351Z,99.90
2018-09-22T09:17:26.706Z,99.90
2018-09-22T09:19:54.988Z,99.90
2018-09-22T09:22:23.308Z,99.90
2018-09-22T09:24:51.643Z,99.90
2018-09-22T09:27:19.999Z,99.90
2018-09-22T09:29:48.337Z,99.90
2018-09-22T09:32:17.789Z,99.90
2018-09-22T09:34:46.943Z,99.90
2018-09-22T09:37:15.329Z,99.90
2018-09-22T09:39:43.661Z,99.90
2018-09-22T09:42:11.929Z,99.90
2018-09-22T09:44:40.283Z,99.90
2018-09-22T09:47:08.582Z,99.90
2018-09-22T09:49:36.894Z,99.90
2018-09-22T09:52:05.255Z,99.90
2018-09-22T09:54:33.614Z,99.90
2018-09-22T09:57:01.933Z,99.90
2018-09-22T09:59:30.245Z,99.90
2018-09-22T10:01:58.579Z,99.90
2018-09-22T10:04:27.425Z,99.90
2018-09-22T10:06:55.860Z,99.90
2018-09-22T10:09:24.277Z,99.90
2018-09-22T10:11:52.806Z,99.90
2018-09-22T10:14:21.178Z,99.80
2018-09-22T10:16:49.500Z,99.60
2018-09-22T10:19:17.849Z,99.70
2018-09-22T10:21:46.190Z,99.10
2018-09-22T10:24:14.469Z,99.20
2018-09-22T10:26:42.752Z,99.30
2018-09-22T10:29:11.025Z,99.20
2018-09-22T10:31:39.325Z,99.10
2018-09-22T10:34:07.813Z,99.00
2018-09-22T10:36:36.124Z,98.90
2018-09-22T10:39:06.578Z,98.30
2018-09-22T10:41:34.920Z,98.20
2018-09-22T10:44:03.381Z,97.60
2018-09-22T10:46:31.718Z,97.50
2018-09-22T10:49:00.108Z,97.60
2018-09-22T10:51:28.680Z,98.00
2018-09-22T10:53:57.953Z,97.70
2018-09-22T10:56:26.528Z,97.90
2018-09-22T10:58:54.884Z,97.40
2018-09-22T11:01:23.181Z,97.40
2018-09-22T11:03:51.506Z,97.30
2018-09-22T11:06:19.794Z,97.10
2018-09-22T11:08:48.094Z,97.20
2018-09-22T11:11:16.373Z,96.70
2018-09-22T11:13:44.987Z,96.30
2018-09-22T11:16:13.305Z,95.70
2018-09-22T11:18:41.620Z,95.70
2018-09-22T11:21:09.910Z,95.40
2018-09-22T11:23:38.279Z,95.10
2018-09-22T11:26:06.634Z,95.10
2018-09-22T11:28:34.956Z,94.90
2018-09-22T11:31:03.329Z,94.90
2018-09-22T11:33:31.652Z,95.50
2018-09-22T11:35:59.973Z,94.60
2018-09-22T11:38:28.532Z,94.20
2018-09-22T11:40:56.874Z,94.50
2018-09-22T11:43:25.388Z,94.10
2018-09-22T11:45:53.699Z,94.50
2018-09-22T11:48:21.967Z,94.00
2018-09-22T11:50:50.308Z,94.60
2018-09-22T11:53:18.604Z,93.70
2018-09-22T11:55:46.940Z,93.40
2018-09-22T11:58:15.288Z,93.30
2018-09-22T12:00:43.700Z,93.60
2018-09-22T12:03:12.022Z,93.40
2018-09-22T12:05:40.340Z,93.20
2018-09-22T12:08:08.799Z,92.90
2018-09-22T12:10:37.115Z,92.60
2018-09-22T12:13:05.459Z,93.00
2018-09-22T12:15:33.740Z,93.20
2018-09-22T12:18:02.102Z,93.10
2018-09-22T12:20:30.528Z,93.30
2018-09-22T12:22:58.840Z,93.00
2018-09-22T12:25:27.124Z,92.60
2018-09-22T12:27:55.833Z,92.80
2018-09-22T12:30:24.143Z,92.70
2018-09-22T12:32:52.469Z,92.60
2018-09-22T12:35:20.779Z,92.70
2018-09-22T12:37:49.155Z,93.10
2018-09-22T12:40:17.478Z,93.10
2018-09-22T12:42:45.855Z,93.30
2018-09-22T12:45:14.192Z,93.40
2018-09-22T12:47:44.041Z,93.10
2018-09-22T12:50:12.340Z,92.90
2018-09-22T12:52:40.640Z,93.30
2018-09-22T12:55:08.991Z,93.20
2018-09-22T12:57:37.237Z,93.30
2018-09-22T13:00:05.772Z,93.00
2018-09-22T13:02:34.071Z,93.20
2018-09-22T13:05:02.439Z,93.20
2018-09-22T13:07:31.206Z,93.30
2018-09-22T13:09:59.470Z,93.40
2018-09-22T13:12:27.746Z,93.40
2018-09-22T13:14:56.057Z,93.50
2018-09-22T13:17:24.376Z,93.50
2018-09-22T13:19:52.679Z,93.40
2018-09-22T13:22:21.094Z,93.60
2018-09-22T13:24:49.520Z,93.60
2018-09-22T13:27:17.854Z,93.70
2018-09-22T13:29:46.129Z,93.70
2018-09-22T13:32:14.473Z,94.10
2018-09-22T13:34:42.809Z,93.80
2018-09-22T13:37:11.202Z,93.80
2018-09-22T13:39:39.467Z,93.80
2018-09-22T13:42:07.838Z,93.90
2018-09-22T13:44:36.155Z,94.10
2018-09-22T13:47:05.062Z,94.10
2018-09-22T13:49:33.360Z,94.20
2018-09-22T13:52:01.744Z,94.50
2018-09-22T13:54:30.099Z,94.10
2018-09-22T13:56:58.420Z,94.30
2018-09-22T13:59:26.749Z,94.50
2018-09-22T14:01:55.068Z,94.60
2018-09-22T14:04:23.403Z,94.50
2018-09-22T14:06:52.117Z,94.70
2018-09-22T14:09:20.400Z,94.70
2018-09-22T14:11:48.699Z,94.60
2018-09-22T14:14:17.056Z,94.50
2018-09-22T14:16:45.377Z,94.80
2018-09-22T14:19:13.699Z,94.70
2018-09-22T14:21:41.971Z,94.90
2018-09-22T14:24:10.363Z,95.00
2018-09-22T14:26:38.692Z,95.20
2018-09-22T14:29:07.037Z,95.60
2018-09-22T14:31:35.717Z,95.20
2018-09-22T14:34:04.052Z,95.20
2018-09-22T14:36:33.059Z,95.40
2018-09-22T14:39:01.375Z,95.40
2018-09-22T14:41:29.668Z,95.10
2018-09-22T14:43:57.965Z,95.10
2018-09-22T14:46:26.659Z,95.20
2018-09-22T14:48:56.157Z,95.30
2018-09-22T14:51:24.433Z,95.40
2018-09-22T14:53:52.758Z,95.00
2018-09-22T14:56:21.057Z,94.60
2018-09-22T14:58:49.353Z,94.60
2018-09-22T15:01:17.682Z,94.70
2018-09-22T15:03:45.979Z,95.30
2018-09-22T15:06:14.335Z,98.40
2018-09-22T15:08:42.654Z,99.90
2018-09-22T15:11:11.009Z,99.90
2018-09-22T15:13:39.645Z,99.90
2018-09-22T15:16:07.955Z,99.90
2018-09-22T15:18:36.276Z,99.90
2018-09-22T15:21:04.602Z,99.90
2018-09-22T15:23:32.907Z,99.90
2018-09-22T15:26:01.203Z,99.90
2018-09-22T15:28:29.531Z,99.90
2018-09-22T15:30:57.853Z,99.90
2018-09-22T15:33:26.104Z,99.90
2018-09-22T15:35:54.445Z,99.90
2018-09-22T15:38:22.724Z,99.90
2018-09-22T15:40:51.020Z,99.90
2018-09-22T15:43:19.320Z,99.90
2018-09-22T15:45:47.673Z,99.90
2018-09-22T15:48:16.357Z,99.90
2018-09-22T15:50:44.727Z,99.90
2018-09-22T15:53:13.023Z,99.90
2018-09-22T15:55:42.039Z,99.90
2018-09-22T15:58:10.374Z,99.90
2018-09-22T16:00:38.718Z,99.90
2018-09-22T16:03:07.003Z,99.90
2018-09-22T16:05:35.396Z,99.90
2018-09-22T16:08:04.267Z,99.90
2018-09-22T16:10:32.596Z,99.90
2018-09-22T16:13:00.875Z,99.90
2018-09-22T16:15:29.186Z,99.90
2018-09-22T16:17:57.523Z,99.90
2018-09-22T16:20:25.843Z,99.90
2018-09-22T16:22:54.236Z,99.90
2018-09-22T16:25:29.357Z,99.90
2018-09-22T16:27:57.667Z,99.90
2018-09-22T16:30:25.996Z,99.90
2018-09-22T16:32:54.339Z,99.90
2018-09-22T16:35:22.702Z,99.90
2018-09-22T16:37:51.027Z,99.90
2018-09-22T16:40:19.365Z,99.90
2018-09-22T16:42:47.808Z,99.90
2018-09-22T16:45:16.094Z,99.90
2018-09-22T16:47:44.374Z,99.90
2018-09-22T16:50:12.737Z,99.90
2018-09-22T16:52:41.012Z,99.90
2018-09-22T16:55:09.581Z,99.90
2018-09-22T16:57:37.933Z,99.90
2018-09-22T17:00:06.296Z,99.90
2018-09-22T17:02:34.593Z,99.90
2018-09-22T17:05:02.977Z,99.90
2018-09-22T17:07:31.353Z,99.90
2018-09-22T17:09:59.779Z,99.90
2018-09-22T17:12:28.120Z,99.90
2018-09-22T17:14:56.419Z,99.90
2018-09-22T17:17:24.748Z,99.90
2018-09-22T17:19:53.057Z,99.90
2018-09-22T17:22:21.346Z,99.90
2018-09-22T17:24:50.444Z,99.90
2018-09-22T17:27:18.771Z,99.90
2018-09-22T17:29:47.179Z,99.90
2018-09-22T17:32:15.480Z,99.90
2018-09-22T17:34:44.635Z,99.90
2018-09-22T17:37:12.969Z,99.90
2018-09-22T17:39:41.262Z,99.90
2018-09-22T17:42:09.688Z,99.90
2018-09-22T17:44:38.089Z,99.90
2018-09-22T17:47:06.510Z,99.90
2018-09-22T17:49:34.826Z,99.90
2018-09-22T17:52:03.116Z,99.90
2018-09-22T17:54:31.439Z,99.90
2018-09-22T17:56:59.741Z,99.90
2018-09-22T17:59:28.122Z,99.90
2018-09-22T18:01:56.733Z,99.90
2018-09-22T18:04:25.007Z,99.90
2018-09-22T18:06:53.345Z,99.90
2018-09-22T18:09:21.617Z,99.90
2018-09-22T18:11:49.908Z,99.90
2018-09-22T18:14:18.282Z,99.90
2018-09-22T18:16:46.638Z,99.90
2018-09-22T18:19:14.949Z,99.90
2018-09-22T18:21:43.312Z,99.90
2018-09-22T18:24:11.621Z,99.90
2018-09-22T18:26:40.136Z,99.90
2018-09-22T18:29:08.413Z,99.90
2018-09-22T18:31:36.696Z,99.90
2018-09-22T18:34:05.005Z,99.90
2018-09-22T18:36:33.253Z,99.90
2018-09-22T18:39:01.543Z,99.90
2018-09-22T18:41:29.861Z,99.90
2018-09-22T18:43:58.304Z,99.90
2018-09-22T18:46:26.627Z,99.90
2018-09-22T18:48:54.929Z,99.90
2018-09-22T18:51:23.254Z,99.90
2018-09-22T18:53:51.533Z,99.90
2018-09-22T18:56:19.889Z,99.90
2018-09-22T18:58:48.287Z,99.90
2018-09-22T19:01:16.674Z,99.90
2018-09-22T19:03:45.000Z,99.90
2018-09-22T19:06:13.273Z,99.90
2018-09-22T19:08:41.595Z,99.90
2018-09-22T19:11:09.918Z,99.90
2018-09-22T19:13:42.493Z,99.90
2018-09-22T19:16:14.582Z,99.90
2018-09-22T19:18:47.107Z,99.90
2018-09-22T19:21:19.195Z,99.90
2018-09-22T19:23:52.105Z,99.90
2018-09-22T19:26:30.206Z,99.90
2018-09-22T19:29:02.020Z,99.90
2018-09-22T19:31:34.282Z,99.90
2018-09-22T19:34:06.794Z,99.90
2018-09-22T19:36:43.042Z,99.90
2018-09-22T19:39:17.168Z,99.90
2018-09-22T19:41:53.922Z,99.90
2018-09-22T19:45:27.216Z,99.90
2018-09-22T19:48:03.268Z,99.90
2018-09-22T19:51:05.690Z,99.90
2018-09-22T19:53:34.015Z,99.90
2018-09-22T19:56:02.334Z,99.90
2018-09-22T19:58:30.641Z,99.90
2018-09-22T20:00:58.983Z,99.90
2018-09-22T20:03:27.338Z,99.90
2018-09-22T20:05:55.643Z,99.90
2018-09-22T20:08:23.907Z,99.90
2018-09-22T20:10:52.268Z,99.90
2018-09-22T20:13:20.710Z,99.90
2018-09-22T20:15:55.600Z,99.90
2018-09-22T20:18:24.134Z,99.90
2018-09-22T20:20:52.427Z,99.90
2018-09-22T20:23:20.735Z,99.90
2018-09-22T20:25:49.059Z,99.90
2018-09-22T20:28:17.300Z,99.90
2018-09-22T20:30:45.585Z,99.90
2018-09-22T20:33:13.908Z,99.90
2018-09-22T20:35:42.221Z,99.90
2018-09-22T20:38:10.540Z,99.90
2018-09-22T20:40:38.869Z,99.90
2018-09-22T20:43:07.221Z,99.90
2018-09-22T20:45:35.615Z,99.90
2018-09-22T20:48:04.041Z,99.90
2018-09-22T20:50:33.407Z,99.90
2018-09-22T20:53:02.396Z,99.90
2018-09-22T20:55:30.723Z,99.90
2018-09-22T20:57:59.038Z,99.90
2018-09-22T21:00:27.337Z,99.90
2018-09-22T21:02:55.662Z,99.90
2018-09-22T21:05:23.949Z,99.90
2018-09-22T21:07:52.702Z,99.90
2018-09-22T21:10:21.092Z,99.90
2018-09-22T21:12:49.439Z,99.90
2018-09-22T21:15:17.775Z,99.90
2018-09-22T21:17:46.057Z,99.90
2018-09-22T21:20:14.341Z,99.90
2018-09-22T21:22:42.745Z,99.90
2018-09-22T21:25:11.120Z,99.90
2018-09-22T21:27:40.728Z,99.90
2018-09-22T21:30:09.174Z,99.90
2018-09-22T21:32:37.642Z,99.90
2018-09-22T21:35:06.025Z,99.90
2018-09-22T21:37:34.385Z,99.90
2018-09-22T21:40:02.709Z,99.90
2018-09-22T21:42:31.011Z,99.90
2018-09-22T21:44:59.392Z,99.90
2018-09-22T21:47:27.774Z,99.90
2018-09-22T21:49:56.045Z,99.90
2018-09-22T21:52:24.437Z,99.90
2018-09-22T21:54:52.871Z,99.90
2018-09-22T21:57:21.393Z,99.90
2018-09-22T21:59:49.793Z,99.90
2018-09-22T22:02:18.175Z,99.90
2018-09-22T22:04:46.669Z,99.90
2018-09-22T22:07:14.968Z,99.90
2018-09-22T22:09:43.272Z,99.90
2018-09-22T22:12:11.582Z,99.90
2018-09-22T22:14:39.884Z,99.90
2018-09-22T22:17:08.179Z,99.90
2018-09-22T22:19:36.478Z,99.90
2018-09-22T22:22:04.763Z,99.90
2018-09-22T22:24:33.086Z,99.90
2018-09-22T22:27:01.381Z,99.90
2018-09-22T22:29:29.742Z,99.90
2018-09-22T22:31:58.055Z,99.90
2018-09-22T22:34:26.492Z,99.90
2018-09-22T22:36:54.859Z,99.90
2018-09-22T22:39:23.295Z,99.90
2018-09-22T22:41:51.689Z,99.90
2018-09-22T22:44:20.011Z,99.90
2018-09-22T22:46:48.315Z,99.90
2018-09-22T22:49:16.629Z,99.90
2018-09-22T22:51:44.975Z,99.90
2018-09-22T22:54:13.340Z,99.90
2018-09-22T22:56:41.639Z,99.90
2018-09-22T22:59:09.957Z,99.90
2018-09-22T23:01:38.276Z,99.90
2018-09-22T23:04:06.834Z,99.90
2018-09-22T23:06:35.149Z,99.90
2018-09-22T23:09:03.656Z,99.90
2018-09-22T23:11:31.999Z,99.90
2018-09-22T23:14:00.338Z,99.90
2018-09-22T23:16:28.800Z,99.90
2018-09-22T23:18:57.142Z,99.90
2018-09-22T23:21:25.520Z,99.90
2018-09-22T23:23:53.834Z,99.90
2018-09-22T23:26:22.150Z,99.90
2018-09-22T23:28:50.466Z,99.90
2018-09-22T23:31:18.791Z,99.90
2018-09-22T23:33:47.422Z,99.90
2018-09-22T23:36:15.759Z,99.90
2018-09-22T23:38:44.081Z,99.90
2018-09-22T23:41:12.397Z,99.90
2018-09-22T23:43:40.706Z,99.90
2018-09-22T23:46:09.014Z,99.90
2018-09-22T23:48:37.332Z,99.90
2018-09-22T23:51:05.721Z,99.90
2018-09-22T23:53:34.090Z,99.90
2018-09-22T23:56:03.015Z,99.90
2018-09-22T23:58:31.394Z,99.90
